Time,TemperatureF,DewpointF,PressureIn,WindDirection,WindDirectionDegrees,WindSpeedMPH,WindSpeedGustMPH,Humidity,HourlyPrecipIn,Conditions,Clouds,dailyrainin,SoftwareType,DateUTC
2013-03-06 00:00:00,19.9,17.2,30.31,NW,322,0.0,0.0,89,0.00,,SKC,0.00,VWS V14.01,2013-03-06 06:00:00,
2013-03-06 00:05:00,19.6,16.9,30.32,NW,322,0.0,0.0,89,0.00,,SKC,0.00,VWS V14.01,2013-03-06 06:05:00,
2013-03-06 00:10:00,19.4,17.0,30.32,NW,322,0.0,0.0,90,0.00,,SKC,0.00,VWS V14.01,2013-03-06 06:10:00,
2013-03-06 00:15:00,19.4,17.0,30.32,NW,322,0.0,2.0,90,0.00,,SKC,0.00,VWS V14.01,2013-03-06 06:15:00,
2013-03-06 00:20:00,19.3,16.9,30.32,NW,322,0.0,2.0,90,0.00,,SKC,0.00,VWS V14.01,2013-03-06 06:20:00,
2013-03-06 00:25:00,19.4,17.0,30.32,NW,322,4.0,4.0,90,0.00,,SKC,0.00,VWS V14.01,2013-03-06 06:25:00,
2013-03-06 00:30:00,19.4,17.0,30.32,NW,321,0.0,0.0,90,0.00,,SKC,0.00,VWS V14.01,2013-03-06 06:30:00,
2013-03-06 00:35:00,19.3,16.9,30.32,WNW,289,0.0,2.0,90,0.00,,SKC,0.00,VWS V14.01,2013-03-06 06:35:00,
2013-03-06 00:40:00,19.1,16.4,30.32,WNW,289,0.0,2.0,89,0.00,,SKC,0.00,VWS V14.01,2013-03-06 06:40:00,
2013-03-06 00:45:00,19.0,16.3,30.33,WNW,289,0.0,2.0,89,0.00,,SKC,0.00,VWS V14.01,2013-03-06 06:45:00,
2013-03-06 00:50:00,18.8,16.1,30.33,WNW,289,0.0,2.0,89,0.00,,SKC,0.00,VWS V14.01,2013-03-06 06:50:00,
2013-03-06 00:55:00,18.6,15.9,30.33,WNW,289,0.0,2.0,89,0.00,,SKC,0.00,VWS V14.01,2013-03-06 06:55:00,
2013-03-06 01:00:00,18.5,15.8,30.33,WNW,289,0.0,0.0,89,0.00,,SKC,0.00,VWS V14.01,2013-03-06 07:00:00,
2013-03-06 01:05:00,18.3,15.6,30.34,WNW,289,0.0,0.0,89,0.00,,SKC,0.00,VWS V14.01,2013-03-06 07:05:00,
2013-03-06 01:10:00,18.1,15.4,30.34,WNW,289,0.0,0.0,89,0.00,,SKC,0.00,VWS V14.01,2013-03-06 07:10:00,
2013-03-06 01:15:00,17.7,14.8,30.34,WNW,289,0.0,0.0,88,0.00,,SKC,0.00,VWS V14.01,2013-03-06 07:15:00,
2013-03-06 01:20:00,17.4,14.7,30.34,WNW,289,0.0,0.0,89,0.00,,SKC,0.00,VWS V14.01,2013-03-06 07:20:00,
2013-03-06 01:25:00,17.1,14.4,30.34,WNW,289,0.0,0.0,89,0.00,,SKC,0.00,VWS V14.01,2013-03-06 07:25:00,
2013-03-06 01:30:00,16.8,14.1,30.34,WNW,289,0.0,0.0,89,0.00,,SKC,0.00,VWS V14.01,2013-03-06 07:30:00,
2013-03-06 01:35:00,16.4,13.7,30.35,WNW,289,0.0,0.0,89,0.00,,SKC,0.00,VWS V14.01,2013-03-06 07:35:00,
2013-03-06 01:40:00,16.1,13.4,30.35,WNW,289,0.0,0.0,89,0.00,,SKC,0.00,VWS V14.01,2013-03-06 07:40:00,
2013-03-06 01:45:00,15.8,13.1,30.35,WNW,289,0.0,0.0,89,0.00,,SKC,0.00,VWS V14.01,2013-03-06 07:45:00,
2013-03-06 01:50:00,15.5,13.1,30.35,WNW,289,0.0,0.0,90,0.00,,SKC,0.00,VWS V14.01,2013-03-06 07:50:00,
2013-03-06 01:55:00,15.3,12.9,30.35,WNW,289,0.0,0.0,90,0.00,,SKC,0.00,VWS V14.01,2013-03-06 07:55:00,
2013-03-06 02:00:00,15.2,12.8,30.36,WNW,289,0.0,0.0,90,0.00,,SKC,0.00,VWS V14.01,2013-03-06 08:00:00,
2013-03-06 02:05:00,15.2,13.1,30.36,WNW,289,0.0,0.0,91,0.00,,SKC,0.00,VWS V14.01,2013-03-06 08:05:00,
2013-03-06 02:10:00,15.1,12.9,30.36,WNW,289,0.0,0.0,91,0.00,,SKC,0.00,VWS V14.01,2013-03-06 08:10:00,
2013-03-06 02:15:00,15.1,12.9,30.36,WNW,289,0.0,0.0,91,0.00,,SKC,0.00,VWS V14.01,2013-03-06 08:15:00,
2013-03-06 02:20:00,15.1,12.9,30.36,WNW,289,0.0,0.0,91,0.00,,SKC,0.00,VWS V14.01,2013-03-06 08:20:00,
2013-03-06 02:25:00,15.1,12.9,30.36,WNW,289,0.0,0.0,91,0.00,,SKC,0.00,VWS V14.01,2013-03-06 08:25:00,
2013-03-06 02:30:00,15.0,12.9,30.35,WNW,289,0.0,0.0,91,0.00,,SKC,0.00,VWS V14.01,2013-03-06 08:30:00,
2013-03-06 02:35:00,14.9,12.8,30.36,WNW,289,0.0,0.0,91,0.00,,SKC,0.00,VWS V14.01,2013-03-06 08:35:00,
2013-03-06 02:40:00,14.8,12.6,30.35,WNW,289,0.0,0.0,91,0.00,,SKC,0.00,VWS V14.01,2013-03-06 08:40:00,
2013-03-06 02:45:00,14.7,12.6,30.35,WNW,289,0.0,0.0,91,0.00,,SKC,0.00,VWS V14.01,2013-03-06 08:45:00,
2013-03-06 02:50:00,14.5,12.4,30.35,WNW,289,0.0,0.0,91,0.00,,SKC,0.00,VWS V14.01,2013-03-06 08:50:00,
2013-03-06 02:55:00,14.4,12.3,30.35,WNW,289,0.0,0.0,91,0.00,,SKC,0.00,VWS V14.01,2013-03-06 08:55:00,
2013-03-06 03:00:00,14.2,12.1,30.35,WNW,289,0.0,0.0,91,0.00,,SKC,0.00,VWS V14.01,2013-03-06 09:00:00,
2013-03-06 03:05:00,14.3,12.4,30.36,WNW,289,0.0,1.0,92,0.00,,SKC,0.00,VWS V14.01,2013-03-06 09:05:00,
2013-03-06 03:10:00,14.4,12.5,30.36,WNW,289,0.0,1.0,92,0.00,,SKC,0.00,VWS V14.01,2013-03-06 09:10:00,
2013-03-06 03:15:00,14.5,12.6,30.36,WNW,289,0.0,1.0,92,0.00,,SKC,0.00,VWS V14.01,2013-03-06 09:15:00,
2013-03-06 03:20:00,14.6,12.7,30.36,WNW,289,0.0,1.0,92,0.00,,SKC,0.00,VWS V14.01,2013-03-06 09:20:00,
2013-03-06 03:25:00,14.7,12.8,30.36,WNW,289,0.0,1.0,92,0.00,,SKC,0.00,VWS V14.01,2013-03-06 09:25:00,
2013-03-06 03:30:00,14.7,12.8,30.36,WNW,289,0.0,0.0,92,0.00,,SKC,0.00,VWS V14.01,2013-03-06 09:30:00,
2013-03-06 03:35:00,14.7,12.8,30.36,WNW,289,0.0,0.0,92,0.00,,SKC,0.00,VWS V14.01,2013-03-06 09:35:00,
2013-03-06 03:40:00,14.7,12.8,30.36,WNW,289,0.0,1.0,92,0.00,,SKC,0.00,VWS V14.01,2013-03-06 09:40:00,
2013-03-06 03:45:00,14.6,12.7,30.36,WNW,289,0.0,1.0,92,0.00,,SKC,0.00,VWS V14.01,2013-03-06 09:45:00,
2013-03-06 03:50:00,14.5,12.4,30.36,WNW,289,0.0,1.0,91,0.00,,SKC,0.00,VWS V14.01,2013-03-06 09:50:00,
2013-03-06 03:55:00,14.2,12.1,30.36,WNW,289,0.0,1.0,91,0.00,,SKC,0.00,VWS V14.01,2013-03-06 09:55:00,
2013-03-06 04:00:00,13.9,11.8,30.36,WNW,289,0.0,0.0,91,0.00,,SKC,0.00,VWS V14.01,2013-03-06 10:00:00,
2013-03-06 04:05:00,13.9,11.8,30.37,WNW,289,0.0,0.0,91,0.00,,SKC,0.00,VWS V14.01,2013-03-06 10:05:00,
2013-03-06 04:10:00,13.8,11.7,30.37,WNW,289,0.0,0.0,91,0.00,,SKC,0.00,VWS V14.01,2013-03-06 10:10:00,
2013-03-06 04:15:00,13.7,11.6,30.37,WNW,289,0.0,0.0,91,0.00,,SKC,0.00,VWS V14.01,2013-03-06 10:15:00,
2013-03-06 04:20:00,13.5,11.4,30.37,WNW,289,0.0,0.0,91,0.00,,SKC,0.00,VWS V14.01,2013-03-06 10:20:00,
2013-03-06 04:25:00,13.1,10.7,30.37,WNW,289,0.0,0.0,90,0.00,,SKC,0.00,VWS V14.01,2013-03-06 10:25:00,
2013-03-06 04:30:00,12.7,10.3,30.38,WNW,289,0.0,0.0,90,0.00,,SKC,0.00,VWS V14.01,2013-03-06 10:30:00,
2013-03-06 04:35:00,12.5,10.1,30.37,WNW,289,0.0,0.0,90,0.00,,SKC,0.00,VWS V14.01,2013-03-06 10:35:00,
2013-03-06 04:40:00,12.1,9.7,30.37,WNW,289,0.0,0.0,90,0.00,,SKC,0.00,VWS V14.01,2013-03-06 10:40:00,
2013-03-06 04:45:00,11.8,9.4,30.38,WNW,289,0.0,0.0,90,0.00,,SKC,0.00,VWS V14.01,2013-03-06 10:45:00,
2013-03-06 04:50:00,11.6,9.2,30.38,WNW,289,0.0,0.0,90,0.00,,SKC,0.00,VWS V14.01,2013-03-06 10:50:00,
2013-03-06 04:55:00,11.5,9.4,30.38,WNW,289,0.0,2.0,91,0.00,,SKC,0.00,VWS V14.01,2013-03-06 10:55:00,
2013-03-06 05:00:00,11.8,9.9,30.38,WNW,289,0.0,0.0,92,0.00,,SKC,0.00,VWS V14.01,2013-03-06 11:00:00,
2013-03-06 05:05:00,12.1,10.5,30.38,WNW,289,0.0,0.0,93,0.00,,SKC,0.00,VWS V14.01,2013-03-06 11:05:00,
2013-03-06 05:10:00,12.2,10.3,30.38,WNW,289,0.0,0.0,92,0.00,,SKC,0.00,VWS V14.01,2013-03-06 11:10:00,
2013-03-06 05:15:00,12.2,10.3,30.38,WNW,289,0.0,2.0,92,0.00,,SKC,0.00,VWS V14.01,2013-03-06 11:15:00,
2013-03-06 05:20:00,12.2,10.3,30.38,WNW,289,0.0,2.0,92,0.00,,SKC,0.00,VWS V14.01,2013-03-06 11:20:00,
2013-03-06 05:25:00,12.2,10.3,30.39,WNW,289,0.0,2.0,92,0.00,,SKC,0.00,VWS V14.01,2013-03-06 11:25:00,
2013-03-06 05:30:00,12.2,10.3,30.39,WNW,289,0.0,0.0,92,0.00,,SKC,0.00,VWS V14.01,2013-03-06 11:30:00,
2013-03-06 05:35:00,12.1,10.0,30.39,WNW,289,0.0,0.0,91,0.00,,SKC,0.00,VWS V14.01,2013-03-06 11:35:00,
2013-03-06 05:40:00,12.0,9.9,30.39,WNW,289,0.0,0.0,91,0.00,,SKC,0.00,VWS V14.01,2013-03-06 11:40:00,
2013-03-06 05:45:00,11.9,9.8,30.39,WNW,289,0.0,0.0,91,0.00,,SKC,0.00,VWS V14.01,2013-03-06 11:45:00,
2013-03-06 05:50:00,11.8,9.7,30.39,WNW,289,0.0,0.0,91,0.00,,SKC,0.00,VWS V14.01,2013-03-06 11:50:00,
2013-03-06 05:55:00,11.8,9.7,30.39,WNW,289,0.0,0.0,91,0.00,,SKC,0.00,VWS V14.01,2013-03-06 11:55:00,
2013-03-06 06:00:00,11.7,9.6,30.40,WNW,289,0.0,0.0,91,0.00,,SKC,0.00,VWS V14.01,2013-03-06 12:00:00,
2013-03-06 06:05:00,11.7,9.6,30.40,WNW,289,0.0,0.0,91,0.00,,SKC,0.00,VWS V14.01,2013-03-06 12:05:00,
2013-03-06 06:10:00,11.5,9.4,30.40,WNW,289,0.0,0.0,91,0.00,,SKC,0.00,VWS V14.01,2013-03-06 12:10:00,
2013-03-06 06:15:00,11.4,9.0,30.40,WNW,289,0.0,0.0,90,0.00,,SKC,0.00,VWS V14.01,2013-03-06 12:15:00,
2013-03-06 06:20:00,11.2,8.9,30.41,WNW,289,0.0,0.0,90,0.00,,SKC,0.00,VWS V14.01,2013-03-06 12:20:00,
2013-03-06 06:25:00,11.0,8.6,30.41,WNW,289,0.0,0.0,90,0.00,,SKC,0.00,VWS V14.01,2013-03-06 12:25:00,
2013-03-06 06:30:00,10.7,8.4,30.41,WNW,289,0.0,0.0,90,0.00,,SKC,0.00,VWS V14.01,2013-03-06 12:30:00,
2013-03-06 06:35:00,10.7,8.4,30.41,WNW,289,0.0,0.0,90,0.00,,SKC,0.00,VWS V14.01,2013-03-06 12:35:00,
2013-03-06 06:40:00,10.5,8.1,30.42,WNW,289,0.0,0.0,90,0.00,,SKC,0.00,VWS V14.01,2013-03-06 12:40:00,
2013-03-06 06:45:00,10.4,8.1,30.42,WNW,289,0.0,0.0,90,0.00,,SKC,0.00,VWS V14.01,2013-03-06 12:45:00,
2013-03-06 06:50:00,10.2,7.9,30.42,WNW,289,0.0,0.0,90,0.00,,SKC,0.00,VWS V14.01,2013-03-06 12:50:00,
2013-03-06 06:55:00,10.1,7.8,30.42,WNW,289,0.0,0.0,90,0.00,,SKC,0.00,VWS V14.01,2013-03-06 12:55:00,
2013-03-06 07:00:00,10.1,8.0,30.42,WNW,289,0.0,0.0,91,0.00,,SKC,0.00,VWS V14.01,2013-03-06 13:00:00,
2013-03-06 07:05:00,10.3,8.2,30.42,WNW,289,0.0,0.0,91,0.00,,SKC,0.00,VWS V14.01,2013-03-06 13:05:00,
2013-03-06 07:10:00,10.4,8.3,30.42,WNW,289,0.0,0.0,91,0.00,,SKC,0.00,VWS V14.01,2013-03-06 13:10:00,
2013-03-06 07:15:00,10.8,8.7,30.42,WNW,289,0.0,0.0,91,0.00,,SKC,0.00,VWS V14.01,2013-03-06 13:15:00,
2013-03-06 07:20:00,11.5,9.6,30.42,WNW,289,0.0,0.0,92,0.00,,SKC,0.00,VWS V14.01,2013-03-06 13:20:00,
2013-03-06 07:25:00,12.3,10.7,30.42,WNW,289,0.0,0.0,93,0.00,,SKC,0.00,VWS V14.01,2013-03-06 13:25:00,
2013-03-06 07:30:00,13.3,11.9,30.42,WNW,289,0.0,0.0,94,0.00,,SKC,0.00,VWS V14.01,2013-03-06 13:30:00,
2013-03-06 07:35:00,14.1,12.7,30.43,WNW,289,0.0,0.0,94,0.00,,SKC,0.00,VWS V14.01,2013-03-06 13:35:00,
2013-03-06 07:40:00,14.6,12.9,30.43,WNW,289,0.0,1.0,93,0.00,,SKC,0.00,VWS V14.01,2013-03-06 13:40:00,
2013-03-06 07:45:00,14.8,12.9,30.43,WNW,289,0.0,1.0,92,0.00,,SKC,0.00,VWS V14.01,2013-03-06 13:45:00,
2013-03-06 07:50:00,15.2,13.3,30.43,WNW,301,0.0,4.0,92,0.00,,SKC,0.00,VWS V14.01,2013-03-06 13:50:00,
2013-03-06 07:55:00,15.6,13.7,30.43,WNW,301,0.0,4.0,92,0.00,,SKC,0.00,VWS V14.01,2013-03-06 13:55:00,
2013-03-06 08:00:00,16.2,14.5,30.43,WNW,301,0.0,0.0,93,0.00,,SKC,0.00,VWS V14.01,2013-03-06 14:00:00,
2013-03-06 08:05:00,16.8,15.1,30.44,WNW,301,0.0,2.0,93,0.00,,SKC,0.00,VWS V14.01,2013-03-06 14:05:00,
2013-03-06 08:10:00,17.5,15.6,30.44,NW,311,0.0,4.0,92,0.00,,SKC,0.00,VWS V14.01,2013-03-06 14:10:00,
2013-03-06 08:15:00,18.0,16.1,30.44,WNW,289,1.0,5.0,92,0.00,,SKC,0.00,VWS V14.01,2013-03-06 14:15:00,
2013-03-06 08:20:00,18.4,16.2,30.44,WNW,293,1.0,5.0,91,0.00,,SKC,0.00,VWS V14.01,2013-03-06 14:20:00,
2013-03-06 08:25:00,18.8,16.6,30.44,WNW,296,0.0,5.0,91,0.00,,SKC,0.00,VWS V14.01,2013-03-06 14:25:00,
2013-03-06 08:30:00,19.1,16.7,30.44,WNW,295,0.0,0.0,90,0.00,,SKC,0.00,VWS V14.01,2013-03-06 14:30:00,
2013-03-06 08:35:00,19.4,16.7,30.44,WNW,295,0.0,4.0,89,0.00,,SKC,0.00,VWS V14.01,2013-03-06 14:35:00,
2013-03-06 08:40:00,19.6,16.9,30.44,NW,310,0.0,4.0,89,0.00,,SKC,0.00,VWS V14.01,2013-03-06 14:40:00,
2013-03-06 08:45:00,19.8,16.8,30.43,NW,312,1.0,4.0,88,0.00,,SKC,0.00,VWS V14.01,2013-03-06 14:45:00,
2013-03-06 08:50:00,19.9,16.9,30.43,NW,321,1.0,5.0,88,0.00,,SKC,0.00,VWS V14.01,2013-03-06 14:50:00,
2013-03-06 08:55:00,20.0,16.8,30.43,NW,321,0.0,5.0,87,0.00,,SKC,0.00,VWS V14.01,2013-03-06 14:55:00,
2013-03-06 09:00:00,20.2,17.0,30.44,NW,325,0.0,1.0,87,0.00,,SKC,0.00,VWS V14.01,2013-03-06 15:00:00,
2013-03-06 09:05:00,20.4,16.9,30.43,NW,319,0.0,6.0,86,0.00,,SKC,0.00,VWS V14.01,2013-03-06 15:05:00,
2013-03-06 09:10:00,20.6,17.1,30.44,North,350,1.0,8.0,86,0.00,,SKC,0.00,VWS V14.01,2013-03-06 15:10:00,
2013-03-06 09:15:00,20.7,16.9,30.44,NW,325,0.0,8.0,85,0.00,,SKC,0.00,VWS V14.01,2013-03-06 15:15:00,
2013-03-06 09:20:00,20.9,16.8,30.44,NNW,328,4.0,8.0,84,0.00,,SKC,0.00,VWS V14.01,2013-03-06 15:20:00,
2013-03-06 09:25:00,21.0,16.9,30.44,NNW,329,5.0,8.0,84,0.00,,SKC,0.00,VWS V14.01,2013-03-06 15:25:00,
2013-03-06 09:30:00,21.2,17.1,30.44,WNW,284,4.0,4.0,84,0.00,,SKC,0.00,VWS V14.01,2013-03-06 15:30:00,
2013-03-06 09:35:00,21.4,17.0,30.44,WNW,298,0.0,4.0,83,0.00,,SKC,0.00,VWS V14.01,2013-03-06 15:35:00,
2013-03-06 09:40:00,21.5,17.1,30.44,NW,307,0.0,4.0,83,0.00,,SKC,0.00,VWS V14.01,2013-03-06 15:40:00,
2013-03-06 09:45:00,21.6,17.2,30.44,NW,321,1.0,4.0,83,0.00,,SKC,0.00,VWS V14.01,2013-03-06 15:45:00,
2013-03-06 09:50:00,21.5,16.9,30.44,West,279,1.0,7.0,82,0.00,,SKC,0.00,VWS V14.01,2013-03-06 15:50:00,
2013-03-06 09:55:00,21.5,16.9,30.44,NNW,338,5.0,7.0,82,0.00,,SKC,0.00,VWS V14.01,2013-03-06 15:55:00,
2013-03-06 10:00:00,21.5,16.9,30.44,NW,317,0.0,1.0,82,0.00,,SKC,0.00,VWS V14.01,2013-03-06 16:00:00,
2013-03-06 10:05:00,21.6,17.0,30.44,NW,325,4.0,5.0,82,0.00,,SKC,0.00,VWS V14.01,2013-03-06 16:05:00,
2013-03-06 10:10:00,21.8,17.2,30.44,NW,326,5.0,5.0,82,0.00,,SKC,0.00,VWS V14.01,2013-03-06 16:10:00,
2013-03-06 10:15:00,22.0,17.4,30.44,West,281,2.0,5.0,82,0.00,,SKC,0.00,VWS V14.01,2013-03-06 16:15:00,
2013-03-06 10:20:00,22.1,17.5,30.43,WNW,299,0.0,6.0,82,0.00,,SKC,0.00,VWS V14.01,2013-03-06 16:20:00,
2013-03-06 10:25:00,22.3,17.1,30.44,NNW,327,4.0,10.0,80,0.00,,SKC,0.00,VWS V14.01,2013-03-06 16:25:00,
2013-03-06 10:30:00,22.2,17.3,30.43,NW,317,0.0,2.0,81,0.00,,SKC,0.00,VWS V14.01,2013-03-06 16:30:00,
2013-03-06 10:35:00,22.2,17.0,30.43,NNW,332,0.0,7.0,80,0.00,,SKC,0.00,VWS V14.01,2013-03-06 16:35:00,
2013-03-06 10:40:00,22.2,17.3,30.43,North,355,5.0,7.0,81,0.00,,SKC,0.00,VWS V14.01,2013-03-06 16:40:00,
2013-03-06 10:45:00,22.2,17.0,30.43,NNW,329,0.0,9.0,80,0.00,,SKC,0.00,VWS V14.01,2013-03-06 16:45:00,
2013-03-06 10:50:00,22.2,17.0,30.43,NW,310,4.0,9.0,80,0.00,,SKC,0.00,VWS V14.01,2013-03-06 16:50:00,
2013-03-06 10:55:00,22.3,17.1,30.43,NNE,19,0.0,9.0,80,0.00,,SKC,0.00,VWS V14.01,2013-03-06 16:55:00,
2013-03-06 11:00:00,22.5,17.3,30.43,NNW,339,0.0,5.0,80,0.00,,SKC,0.00,VWS V14.01,2013-03-06 17:00:00,
2013-03-06 11:05:00,22.6,17.1,30.43,NNW,339,2.0,6.0,79,0.00,,SKC,0.00,VWS V14.01,2013-03-06 17:05:00,
2013-03-06 11:10:00,22.7,17.5,30.43,WNW,287,2.0,6.0,80,0.00,,SKC,0.00,VWS V14.01,2013-03-06 17:10:00,
2013-03-06 11:15:00,22.7,17.2,30.43,NW,318,0.0,7.0,79,0.00,,SKC,0.00,VWS V14.01,2013-03-06 17:15:00,
2013-03-06 11:20:00,22.8,17.3,30.42,NW,307,1.0,7.0,79,0.00,,SKC,0.00,VWS V14.01,2013-03-06 17:20:00,
2013-03-06 11:25:00,22.9,17.7,30.42,WNW,301,0.0,7.0,80,0.00,,SKC,0.00,VWS V14.01,2013-03-06 17:25:00,
2013-03-06 11:30:00,23.3,17.8,30.42,NW,323,5.0,6.0,79,0.00,,SKC,0.00,VWS V14.01,2013-03-06 17:30:00,
2013-03-06 11:35:00,23.3,17.5,30.42,NW,323,0.0,7.0,78,0.00,,SKC,0.00,VWS V14.01,2013-03-06 17:35:00,
2013-03-06 11:40:00,23.4,17.6,30.42,NW,305,2.0,7.0,78,0.00,,SKC,0.00,VWS V14.01,2013-03-06 17:40:00,
2013-03-06 11:45:00,23.4,17.6,30.42,WSW,255,4.0,7.0,78,0.00,,SKC,0.00,VWS V14.01,2013-03-06 17:45:00,
2013-03-06 11:50:00,23.4,17.6,30.42,NW,324,0.0,7.0,78,0.00,,SKC,0.00,VWS V14.01,2013-03-06 17:50:00,
2013-03-06 11:55:00,23.6,17.8,30.42,NW,319,0.0,7.0,78,0.00,,SKC,0.00,VWS V14.01,2013-03-06 17:55:00,
2013-03-06 12:00:00,23.8,17.7,30.42,NNW,339,5.0,7.0,77,0.00,,SKC,0.00,VWS V14.01,2013-03-06 18:00:00,
2013-03-06 12:05:00,23.9,17.5,30.41,NW,313,0.0,7.0,76,0.00,,SKC,0.00,VWS V14.01,2013-03-06 18:05:00,
2013-03-06 12:10:00,23.8,17.4,30.41,NW,315,4.0,10.0,76,0.00,,SKC,0.00,VWS V14.01,2013-03-06 18:10:00,
2013-03-06 12:15:00,23.9,17.5,30.41,WNW,299,1.0,10.0,76,0.00,,SKC,0.00,VWS V14.01,2013-03-06 18:15:00,
2013-03-06 12:20:00,24.0,17.5,30.40,WSW,255,0.0,10.0,76,0.00,,SKC,0.00,VWS V14.01,2013-03-06 18:20:00,
2013-03-06 12:25:00,24.2,17.7,30.40,NW,319,4.0,10.0,76,0.00,,SKC,0.00,VWS V14.01,2013-03-06 18:25:00,
2013-03-06 12:30:00,24.4,17.9,30.40,WSW,238,0.0,1.0,76,0.00,,SKC,0.00,VWS V14.01,2013-03-06 18:30:00,
2013-03-06 12:35:00,24.3,17.8,30.41,WNW,290,1.0,6.0,76,0.00,,SKC,0.00,VWS V14.01,2013-03-06 18:35:00,
2013-03-06 12:40:00,24.4,17.6,30.40,WNW,290,2.0,7.0,75,0.00,,SKC,0.00,VWS V14.01,2013-03-06 18:40:00,
2013-03-06 12:45:00,24.5,17.4,30.40,West,259,0.0,7.0,74,0.00,,SKC,0.00,VWS V14.01,2013-03-06 18:45:00,
2013-03-06 12:50:00,24.9,18.1,30.40,NE,35,0.0,7.0,75,0.00,,SKC,0.00,VWS V14.01,2013-03-06 18:50:00,
2013-03-06 12:55:00,25.3,18.2,30.40,West,281,2.0,7.0,74,0.00,,SKC,0.00,VWS V14.01,2013-03-06 18:55:00,
2013-03-06 13:00:00,25.2,18.1,30.40,WSW,242,2.0,5.0,74,0.00,,SKC,0.00,VWS V14.01,2013-03-06 19:00:00,
2013-03-06 13:05:00,24.9,17.5,30.40,WSW,256,3.0,6.0,73,0.00,,SKC,0.00,VWS V14.01,2013-03-06 19:05:00,
2013-03-06 13:10:00,24.8,17.7,30.40,West,262,3.0,6.0,74,0.00,,SKC,0.00,VWS V14.01,2013-03-06 19:10:00,
2013-03-06 13:15:00,24.8,17.7,30.40,NW,308,4.0,7.0,74,0.00,,SKC,0.00,VWS V14.01,2013-03-06 19:15:00,
2013-03-06 13:20:00,25.1,17.7,30.40,NW,310,4.0,7.0,73,0.00,,SKC,0.00,VWS V14.01,2013-03-06 19:20:00,
2013-03-06 13:25:00,25.4,18.0,30.40,WSW,256,4.0,7.0,73,0.00,,SKC,0.00,VWS V14.01,2013-03-06 19:25:00,
2013-03-06 13:30:00,25.6,17.8,30.39,WNW,295,1.0,5.0,72,0.00,,SKC,0.00,VWS V14.01,2013-03-06 19:30:00,
2013-03-06 13:35:00,26.1,18.3,30.39,WNW,302,2.0,5.0,72,0.01,,SKC,0.01,VWS V14.01,2013-03-06 19:35:00,
2013-03-06 13:40:00,26.2,18.1,30.39,NW,305,7.0,7.0,71,0.01,,SKC,0.01,VWS V14.01,2013-03-06 19:40:00,
2013-03-06 13:45:00,25.9,17.8,30.39,NNW,340,1.0,7.0,71,0.01,,SKC,0.01,VWS V14.01,2013-03-06 19:45:00,
2013-03-06 13:50:00,25.7,17.6,30.39,NW,323,1.0,7.0,71,0.01,,SKC,0.01,VWS V14.01,2013-03-06 19:50:00,
2013-03-06 13:55:00,25.8,18.0,30.39,NW,324,0.0,7.0,72,0.01,,SKC,0.01,VWS V14.01,2013-03-06 19:55:00,
2013-03-06 14:00:00,26.1,18.0,30.38,West,281,1.0,4.0,71,0.01,,SKC,0.01,VWS V14.01,2013-03-06 20:00:00,
2013-03-06 14:05:00,26.6,18.8,30.38,WSW,239,0.0,4.0,72,0.02,,SKC,0.02,VWS V14.01,2013-03-06 20:05:00,
2013-03-06 14:10:00,27.3,18.5,30.38,SW,235,3.0,6.0,69,0.02,,SKC,0.02,VWS V14.01,2013-03-06 20:10:00,
2013-03-06 14:15:00,27.2,18.0,30.38,West,270,2.0,6.0,68,0.03,,SKC,0.03,VWS V14.01,2013-03-06 20:15:00,
2013-03-06 14:20:00,27.3,18.5,30.38,West,273,1.0,6.0,69,0.03,,SKC,0.03,VWS V14.01,2013-03-06 20:20:00,
2013-03-06 14:25:00,27.3,18.1,30.38,West,281,1.0,6.0,68,0.03,,SKC,0.03,VWS V14.01,2013-03-06 20:25:00,
2013-03-06 14:30:00,26.7,17.6,30.38,West,275,1.0,5.0,68,0.04,,SKC,0.04,VWS V14.01,2013-03-06 20:30:00,
2013-03-06 14:35:00,26.3,17.5,30.37,West,281,0.0,5.0,69,0.04,,SKC,0.04,VWS V14.01,2013-03-06 20:35:00,
2013-03-06 14:40:00,26.4,17.6,30.37,NW,311,0.0,5.0,69,0.04,,SKC,0.04,VWS V14.01,2013-03-06 20:40:00,
2013-03-06 14:45:00,26.9,18.1,30.37,WNW,300,2.0,5.0,69,0.05,,SKC,0.05,VWS V14.01,2013-03-06 20:45:00,
2013-03-06 14:50:00,26.8,18.0,30.37,West,267,0.0,5.0,69,0.05,,SKC,0.05,VWS V14.01,2013-03-06 20:50:00,
2013-03-06 14:55:00,27.0,18.2,30.37,WNW,297,1.0,5.0,69,0.05,,SKC,0.05,VWS V14.01,2013-03-06 20:55:00,
2013-03-06 15:00:00,27.2,18.0,30.37,NW,317,2.0,6.0,68,0.05,,SKC,0.06,VWS V14.01,2013-03-06 21:00:00,
2013-03-06 15:05:00,27.3,18.5,30.37,WNW,292,0.0,6.0,69,0.05,,SKC,0.06,VWS V14.01,2013-03-06 21:05:00,
2013-03-06 15:10:00,27.5,18.3,30.37,WSW,256,4.0,6.0,68,0.06,,SKC,0.07,VWS V14.01,2013-03-06 21:10:00,
2013-03-06 15:15:00,27.4,17.9,30.37,West,277,0.0,6.0,67,0.06,,SKC,0.07,VWS V14.01,2013-03-06 21:15:00,
2013-03-06 15:20:00,27.5,18.0,30.37,West,270,0.0,6.0,67,0.06,,SKC,0.07,VWS V14.01,2013-03-06 21:20:00,
2013-03-06 15:25:00,28.0,18.5,30.36,West,275,2.0,6.0,67,0.06,,SKC,0.07,VWS V14.01,2013-03-06 21:25:00,
2013-03-06 15:30:00,27.9,18.4,30.36,West,269,0.0,3.0,67,0.04,,SKC,0.08,VWS V14.01,2013-03-06 21:30:00,
2013-03-06 15:35:00,27.9,18.4,30.36,WNW,292,1.0,4.0,67,0.04,,SKC,0.08,VWS V14.01,2013-03-06 21:35:00,
2013-03-06 15:40:00,27.8,17.9,30.36,WSW,241,0.0,5.0,66,0.05,,SKC,0.09,VWS V14.01,2013-03-06 21:40:00,
2013-03-06 15:45:00,27.8,18.3,30.36,WSW,241,0.0,5.0,67,0.05,,SKC,0.09,VWS V14.01,2013-03-06 21:45:00,
2013-03-06 15:50:00,28.0,17.8,30.36,West,263,0.0,5.0,65,0.05,,SKC,0.09,VWS V14.01,2013-03-06 21:50:00,
2013-03-06 15:55:00,27.7,17.8,30.36,WNW,288,0.0,5.0,66,0.06,,SKC,0.10,VWS V14.01,2013-03-06 21:55:00,
2013-03-06 16:00:00,27.6,18.1,30.36,WSW,247,0.0,0.0,67,0.04,,SKC,0.10,VWS V14.01,2013-03-06 22:00:00,
2013-03-06 16:05:00,27.8,17.9,30.36,WSW,248,3.0,4.0,66,0.04,,SKC,0.10,VWS V14.01,2013-03-06 22:05:00,
2013-03-06 16:10:00,27.7,17.8,30.36,WSW,253,0.0,4.0,66,0.05,,SKC,0.11,VWS V14.01,2013-03-06 22:10:00,
2013-03-06 16:15:00,28.0,18.5,30.36,NW,315,1.0,4.0,67,0.05,,SKC,0.11,VWS V14.01,2013-03-06 22:15:00,
2013-03-06 16:20:00,28.1,18.2,30.36,West,261,0.0,4.0,66,0.05,,SKC,0.11,VWS V14.01,2013-03-06 22:20:00,
2013-03-06 16:25:00,28.0,18.1,30.36,West,265,2.0,4.0,66,0.05,,SKC,0.11,VWS V14.01,2013-03-06 22:25:00,
2013-03-06 16:30:00,27.8,17.9,30.36,NW,306,0.0,0.0,66,0.03,,SKC,0.11,VWS V14.01,2013-03-06 22:30:00,
2013-03-06 16:35:00,27.8,17.9,30.36,WSW,250,0.0,4.0,66,0.03,,SKC,0.11,VWS V14.01,2013-03-06 22:35:00,
2013-03-06 16:40:00,27.6,17.7,30.36,WSW,246,1.0,4.0,66,0.04,,SKC,0.12,VWS V14.01,2013-03-06 22:40:00,
2013-03-06 16:45:00,27.5,17.6,30.36,WSW,240,4.0,5.0,66,0.04,,SKC,0.12,VWS V14.01,2013-03-06 22:45:00,
2013-03-06 16:50:00,27.4,17.9,30.37,WSW,244,0.0,5.0,67,0.04,,SKC,0.12,VWS V14.01,2013-03-06 22:50:00,
2013-03-06 16:55:00,27.1,17.6,30.37,WSW,244,0.0,5.0,67,0.04,,SKC,0.12,VWS V14.01,2013-03-06 22:55:00,
2013-03-06 17:00:00,27.1,17.6,30.36,NW,309,0.0,0.0,67,0.02,,SKC,0.12,VWS V14.01,2013-03-06 23:00:00,
2013-03-06 17:05:00,26.9,17.8,30.36,West,278,1.0,5.0,68,0.02,,SKC,0.12,VWS V14.01,2013-03-06 23:05:00,
2013-03-06 17:10:00,26.5,17.0,30.36,West,278,0.0,5.0,67,0.03,,SKC,0.13,VWS V14.01,2013-03-06 23:10:00,
2013-03-06 17:15:00,25.9,16.8,30.36,West,278,0.0,5.0,68,0.03,,SKC,0.13,VWS V14.01,2013-03-06 23:15:00,
2013-03-06 17:20:00,25.6,16.9,30.36,West,278,0.0,5.0,69,0.03,,SKC,0.13,VWS V14.01,2013-03-06 23:20:00,
2013-03-06 17:25:00,25.2,16.8,30.36,WNW,288,0.0,5.0,70,0.03,,SKC,0.13,VWS V14.01,2013-03-06 23:25:00,
2013-03-06 17:30:00,25.0,16.9,30.36,WNW,288,0.0,0.0,71,0.02,,SKC,0.13,VWS V14.01,2013-03-06 23:30:00,
2013-03-06 17:35:00,24.7,16.6,30.36,WNW,288,0.0,1.0,71,0.02,,SKC,0.13,VWS V14.01,2013-03-06 23:35:00,
2013-03-06 17:40:00,24.5,16.8,30.36,WNW,288,0.0,1.0,72,0.02,,SKC,0.13,VWS V14.01,2013-03-06 23:40:00,
2013-03-06 17:45:00,24.2,16.5,30.36,WNW,288,0.0,1.0,72,0.02,,SKC,0.13,VWS V14.01,2013-03-06 23:45:00,
2013-03-06 17:50:00,23.9,16.5,30.36,WNW,288,0.0,1.0,73,0.02,,SKC,0.13,VWS V14.01,2013-03-06 23:50:00,
2013-03-06 17:55:00,23.6,16.5,30.36,WNW,288,0.0,1.0,74,0.02,,SKC,0.13,VWS V14.01,2013-03-06 23:55:00,
2013-03-06 18:00:00,23.4,16.7,30.36,WNW,288,0.0,0.0,75,0.01,,SKC,0.13,VWS V14.01,2013-03-07 00:00:00,
2013-03-06 18:05:00,23.3,16.6,30.36,WNW,288,0.0,2.0,75,0.01,,SKC,0.13,VWS V14.01,2013-03-07 00:05:00,
2013-03-06 18:10:00,23.1,16.4,30.36,WNW,288,0.0,2.0,75,0.01,,SKC,0.13,VWS V14.01,2013-03-07 00:10:00,
2013-03-06 18:15:00,22.7,16.3,30.36,WNW,288,0.0,2.0,76,0.01,,SKC,0.13,VWS V14.01,2013-03-07 00:15:00,
2013-03-06 18:20:00,22.2,15.8,30.36,WNW,288,0.0,2.0,76,0.01,,SKC,0.13,VWS V14.01,2013-03-07 00:20:00,
2013-03-06 18:25:00,21.7,15.6,30.36,WNW,288,0.0,2.0,77,0.01,,SKC,0.13,VWS V14.01,2013-03-07 00:25:00,
2013-03-06 18:30:00,21.2,15.4,30.36,WNW,288,0.0,0.0,78,0.00,,SKC,0.13,VWS V14.01,2013-03-07 00:30:00,
2013-03-06 18:35:00,20.7,14.9,30.36,WNW,288,0.0,0.0,78,0.00,,SKC,0.13,VWS V14.01,2013-03-07 00:35:00,
2013-03-06 18:40:00,20.2,14.4,30.36,WNW,288,0.0,0.0,78,0.00,,SKC,0.13,VWS V14.01,2013-03-07 00:40:00,
2013-03-06 18:45:00,19.7,14.3,30.37,WNW,288,0.0,0.0,79,0.00,,SKC,0.13,VWS V14.01,2013-03-07 00:45:00,
2013-03-06 18:50:00,19.2,14.1,30.37,WNW,288,0.0,0.0,80,0.00,,SKC,0.13,VWS V14.01,2013-03-07 00:50:00,
2013-03-06 18:55:00,18.8,13.9,30.36,WNW,288,0.0,0.0,81,0.00,,SKC,0.13,VWS V14.01,2013-03-07 00:55:00,
2013-03-06 19:00:00,18.4,13.6,30.36,WNW,288,0.0,0.0,81,0.00,,SKC,0.13,VWS V14.01,2013-03-07 01:00:00,
2013-03-06 19:05:00,18.0,13.4,30.37,WNW,288,0.0,0.0,82,0.00,,SKC,0.13,VWS V14.01,2013-03-07 01:05:00,
2013-03-06 19:10:00,17.6,13.6,30.37,WNW,288,0.0,1.0,84,0.00,,SKC,0.13,VWS V14.01,2013-03-07 01:10:00,
2013-03-06 19:15:00,17.8,14.3,30.37,WNW,288,0.0,1.0,86,0.00,,SKC,0.13,VWS V14.01,2013-03-07 01:15:00,
2013-03-06 19:20:00,17.9,14.2,30.37,WNW,288,0.0,1.0,85,0.00,,SKC,0.13,VWS V14.01,2013-03-07 01:20:00,
2013-03-06 19:25:00,17.8,14.1,30.37,WNW,288,0.0,1.0,85,0.00,,SKC,0.13,VWS V14.01,2013-03-07 01:25:00,
2013-03-06 19:30:00,17.5,13.5,30.37,WNW,288,0.0,0.0,84,0.00,,SKC,0.13,VWS V14.01,2013-03-07 01:30:00,
2013-03-06 19:35:00,17.1,13.1,30.37,WNW,288,0.0,0.0,84,0.00,,SKC,0.13,VWS V14.01,2013-03-07 01:35:00,
2013-03-06 19:40:00,16.7,12.4,30.37,WNW,288,0.0,0.0,83,0.00,,SKC,0.13,VWS V14.01,2013-03-07 01:40:00,
2013-03-06 19:45:00,16.2,12.2,30.37,WNW,288,0.0,0.0,84,0.00,,SKC,0.13,VWS V14.01,2013-03-07 01:45:00,
2013-03-06 19:50:00,15.7,13.8,30.37,WNW,288,0.0,0.0,92,0.00,,SKC,0.13,VWS V14.01,2013-03-07 01:50:00,
2013-03-06 19:55:00,15.3,11.3,30.36,WNW,288,0.0,0.0,84,0.00,,SKC,0.13,VWS V14.01,2013-03-07 01:55:00,
2013-03-06 20:00:00,14.8,11.1,30.37,WNW,288,0.0,0.0,85,0.00,,SKC,0.13,VWS V14.01,2013-03-07 02:00:00,
2013-03-06 20:05:00,14.5,11.1,30.37,WNW,288,0.0,0.0,86,0.00,,SKC,0.13,VWS V14.01,2013-03-07 02:05:00,
2013-03-06 20:10:00,14.1,10.7,30.37,WNW,288,0.0,0.0,86,0.00,,SKC,0.13,VWS V14.01,2013-03-07 02:10:00,
2013-03-06 20:15:00,13.8,10.4,30.37,WNW,288,0.0,0.0,86,0.00,,SKC,0.13,VWS V14.01,2013-03-07 02:15:00,
2013-03-06 20:20:00,13.5,10.4,30.36,WNW,288,0.0,0.0,87,0.00,,SKC,0.13,VWS V14.01,2013-03-07 02:20:00,
2013-03-06 20:25:00,13.2,10.1,30.36,WNW,288,0.0,0.0,87,0.00,,SKC,0.13,VWS V14.01,2013-03-07 02:25:00,
2013-03-06 20:30:00,12.9,9.8,30.37,WNW,288,0.0,0.0,87,0.00,,SKC,0.13,VWS V14.01,2013-03-07 02:30:00,
2013-03-06 20:35:00,12.6,9.5,30.37,WNW,288,0.0,0.0,87,0.00,,SKC,0.13,VWS V14.01,2013-03-07 02:35:00,
2013-03-06 20:40:00,12.3,9.2,30.37,WNW,288,0.0,0.0,87,0.00,,SKC,0.13,VWS V14.01,2013-03-07 02:40:00,
2013-03-06 20:45:00,11.9,8.8,30.36,WNW,288,0.0,0.0,87,0.00,,SKC,0.13,VWS V14.01,2013-03-07 02:45:00,
2013-03-06 20:50:00,11.6,8.5,30.36,WNW,288,0.0,0.0,87,0.00,,SKC,0.13,VWS V14.01,2013-03-07 02:50:00,
2013-03-06 20:55:00,11.3,8.4,30.37,WNW,288,0.0,0.0,88,0.00,,SKC,0.13,VWS V14.01,2013-03-07 02:55:00,
2013-03-06 21:00:00,11.2,8.6,30.37,WNW,288,0.0,0.0,89,0.00,,SKC,0.13,VWS V14.01,2013-03-07 03:00:00,
2013-03-06 21:05:00,11.1,8.5,30.37,WNW,288,0.0,0.0,89,0.00,,SKC,0.13,VWS V14.01,2013-03-07 03:05:00,
2013-03-06 21:10:00,10.8,7.9,30.37,WNW,288,0.0,0.0,88,0.00,,SKC,0.13,VWS V14.01,2013-03-07 03:10:00,
2013-03-06 21:14:00,10.5,7.7,30.37,WNW,288,0.0,0.0,88,0.00,,SKC,0.13,VWS V14.01,2013-03-07 03:14:00,
2013-03-06 21:20:00,10.1,7.0,30.37,WNW,288,0.0,0.0,87,0.00,,SKC,0.13,VWS V14.01,2013-03-07 03:20:00,
2013-03-06 21:25:00,9.9,7.1,30.37,WNW,288,0.0,0.0,88,0.00,,SKC,0.13,VWS V14.01,2013-03-07 03:25:00,
2013-03-06 21:29:00,9.5,6.4,30.37,WNW,288,0.0,0.0,87,0.00,,SKC,0.13,VWS V14.01,2013-03-07 03:29:00,
2013-03-06 21:35:00,9.2,6.1,30.37,WNW,288,0.0,0.0,87,0.00,,SKC,0.13,VWS V14.01,2013-03-07 03:35:00,
2013-03-06 21:40:00,8.7,5.4,30.37,WNW,288,0.0,0.0,86,0.00,,SKC,0.13,VWS V14.01,2013-03-07 03:40:00,
2013-03-06 21:45:00,8.4,5.3,30.38,WNW,288,0.0,0.0,87,0.00,,SKC,0.13,VWS V14.01,2013-03-07 03:45:00,
2013-03-06 21:50:00,8.2,5.1,30.38,WNW,288,0.0,0.0,87,0.00,,SKC,0.13,VWS V14.01,2013-03-07 03:50:00,
2013-03-06 21:55:00,8.0,4.9,30.38,WNW,288,0.0,0.0,87,0.00,,SKC,0.13,VWS V14.01,2013-03-07 03:55:00,
2013-03-06 22:00:00,7.8,5.0,30.38,WNW,288,0.0,0.0,88,0.00,,SKC,0.13,VWS V14.01,2013-03-07 04:00:00,
2013-03-06 22:05:00,7.7,4.9,30.38,WNW,288,0.0,0.0,88,0.00,,SKC,0.13,VWS V14.01,2013-03-07 04:05:00,
2013-03-06 22:10:00,7.5,4.7,30.38,WNW,288,0.0,0.0,88,0.00,,SKC,0.13,VWS V14.01,2013-03-07 04:10:00,
2013-03-06 22:15:00,7.3,4.5,30.38,WNW,288,0.0,0.0,88,0.00,,SKC,0.13,VWS V14.01,2013-03-07 04:15:00,
2013-03-06 22:20:00,7.1,4.3,30.38,WNW,288,0.0,0.0,88,0.00,,SKC,0.13,VWS V14.01,2013-03-07 04:20:00,
2013-03-06 22:25:00,7.0,4.2,30.39,WNW,288,0.0,0.0,88,0.00,,SKC,0.13,VWS V14.01,2013-03-07 04:25:00,
2013-03-06 22:30:00,6.9,4.1,30.38,WNW,288,0.0,0.0,88,0.00,,SKC,0.13,VWS V14.01,2013-03-07 04:30:00,
2013-03-06 22:35:00,6.7,3.9,30.39,WNW,288,0.0,0.0,88,0.00,,SKC,0.13,VWS V14.01,2013-03-07 04:35:00,
2013-03-06 22:40:00,6.6,3.8,30.38,WNW,288,0.0,0.0,88,0.00,,SKC,0.13,VWS V14.01,2013-03-07 04:40:00,
2013-03-06 22:45:00,6.5,3.7,30.38,WNW,288,0.0,0.0,88,0.00,,SKC,0.13,VWS V14.01,2013-03-07 04:45:00,
2013-03-06 22:50:00,6.3,3.5,30.38,WNW,288,0.0,0.0,88,0.00,,SKC,0.13,VWS V14.01,2013-03-07 04:50:00,
2013-03-06 22:55:00,6.0,3.0,30.38,WNW,288,0.0,0.0,87,0.00,,SKC,0.13,VWS V14.01,2013-03-07 04:55:00,
2013-03-06 23:00:00,5.7,2.7,30.38,WNW,288,0.0,0.0,87,0.00,,SKC,0.13,VWS V14.01,2013-03-07 05:00:00,
2013-03-06 23:05:00,5.4,2.4,30.38,WNW,288,0.0,0.0,87,0.00,,SKC,0.13,VWS V14.01,2013-03-07 05:05:00,
2013-03-06 23:10:00,5.1,2.1,30.38,WNW,288,0.0,0.0,87,0.00,,SKC,0.13,VWS V14.01,2013-03-07 05:10:00,
2013-03-06 23:15:00,4.9,1.9,30.39,WNW,288,0.0,0.0,87,0.00,,SKC,0.13,VWS V14.01,2013-03-07 05:15:00,
2013-03-06 23:20:00,4.7,1.7,30.39,WNW,288,0.0,0.0,87,0.00,,SKC,0.13,VWS V14.01,2013-03-07 05:20:00,
2013-03-06 23:25:00,4.5,1.5,30.38,WNW,288,0.0,0.0,87,0.00,,SKC,0.13,VWS V14.01,2013-03-07 05:25:00,
2013-03-06 23:30:00,4.2,0.9,30.38,WNW,288,0.0,0.0,86,0.00,,SKC,0.13,VWS V14.01,2013-03-07 05:30:00,
2013-03-06 23:35:00,4.0,1.0,30.39,WNW,288,0.0,0.0,87,0.00,,SKC,0.13,VWS V14.01,2013-03-07 05:35:00,
2013-03-06 23:40:00,3.7,0.7,30.39,WNW,288,0.0,0.0,87,0.00,,SKC,0.13,VWS V14.01,2013-03-07 05:40:00,
2013-03-06 23:45:00,3.5,0.5,30.39,WNW,288,0.0,0.0,87,0.00,,SKC,0.13,VWS V14.01,2013-03-07 05:45:00,
2013-03-06 23:50:00,3.3,0.1,30.39,WNW,288,0.0,0.0,86,0.00,,SKC,0.13,VWS V14.01,2013-03-07 05:50:00,
2013-03-06 23:55:00,3.1,-0.1,30.39,WNW,288,0.0,0.0,86,0.00,,SKC,0.13,VWS V14.01,2013-03-07 05:55:00,